sensor_id;sensor_type;location;lat;lon;timestamp;pressure;altitude;pressure_sealevel;temperature;humidity
56330;BME280;42236;48.058;10.632;2024-02-04T00:01:22;95759.97;;;3.97;100.00
56330;BME280;42236;48.058;10.632;2024-02-04T00:04:08;95772.50;;;3.97;100.00
56330;BME280;42236;48.058;10.632;2024-02-04T00:06:54;95766.88;;;3.98;100.00
56330;BME280;42236;48.058;10.632;2024-02-04T00:09:39;95773.84;;;3.99;100.00
56330;BME280;42236;48.058;10.632;2024-02-04T00:12:25;95773.84;;;3.99;100.00
56330;BME280;42236;48.058;10.632;2024-02-04T00:15:12;95777.53;;;4.03;100.00
56330;BME280;42236;48.058;10.632;2024-02-04T00:17:57;95788.50;;;4.07;100.00
56330;BME280;42236;48.058;10.632;2024-02-04T00:20:43;95787.69;;;4.12;100.00
56330;BME280;42236;48.058;10.632;2024-02-04T00:23:29;95775.66;;;4.14;100.00
56330;BME280;42236;48.058;10.632;2024-02-04T00:26:14;95766.06;;;4.18;100.00
56330;BME280;42236;48.058;10.632;2024-02-04T00:29:00;95761.75;;;4.22;100.00
56330;BME280;42236;48.058;10.632;2024-02-04T00:31:46;95755.88;;;4.25;100.00
56330;BME280;42236;48.058;10.632;2024-02-04T00:34:31;95743.03;;;4.27;100.00
56330;BME280;42236;48.058;10.632;2024-02-04T00:37:17;95737.16;;;4.31;100.00
56330;BME280;42236;48.058;10.632;2024-02-04T00:40:03;95737.16;;;4.36;100.00
56330;BME280;42236;48.058;10.632;2024-02-04T00:42:49;95739.53;;;4.42;100.00
56330;BME280;42236;48.058;10.632;2024-02-04T00:45:35;95743.53;;;4.45;100.00
56330;BME280;42236;48.058;10.632;2024-02-04T00:48:20;95735.22;;;4.46;100.00
56330;BME280;42236;48.058;10.632;2024-02-04T00:51:06;95733.88;;;4.49;100.00
56330;BME280;42236;48.058;10.632;2024-02-04T00:53:52;95708.22;;;4.53;100.00
56330;BME280;42236;48.058;10.632;2024-02-04T00:56:38;95696.97;;;4.56;100.00
56330;BME280;42236;48.058;10.632;2024-02-04T00:59:24;95715.66;;;4.56;100.00
56330;BME280;42236;48.058;10.632;2024-02-04T01:02:10;95725.28;;;4.57;100.00
56330;BME280;42236;48.058;10.632;2024-02-04T01:04:55;95736.28;;;4.51;100.00
56330;BME280;42236;48.058;10.632;2024-02-04T01:07:42;95726.13;;;4.47;100.00
56330;BME280;42236;48.058;10.632;2024-02-04T01:10:27;95721.31;;;4.44;100.00
56330;BME280;42236;48.058;10.632;2024-02-04T01:13:14;95708.25;;;4.43;100.00
56330;BME280;42236;48.058;10.632;2024-02-04T01:16:00;95716.53;;;4.41;100.00
56330;BME280;42236;48.058;10.632;2024-02-04T01:18:45;95705.06;;;4.41;100.00
56330;BME280;42236;48.058;10.632;2024-02-04T01:21:31;95710.44;;;4.36;100.00
56330;BME280;42236;48.058;10.632;2024-02-04T01:24:16;95718.19;;;4.32;100.00
56330;BME280;42236;48.058;10.632;2024-02-04T01:27:03;95731.81;;;4.31;100.00
56330;BME280;42236;48.058;10.632;2024-02-04T01:29:49;95720.34;;;4.30;100.00
56330;BME280;42236;48.058;10.632;2024-02-04T01:32:34;95715.03;;;4.20;100.00
56330;BME280;42236;48.058;10.632;2024-02-04T01:35:20;95704.91;;;4.17;100.00
56330;BME280;42236;48.058;10.632;2024-02-04T01:38:06;95703.31;;;4.16;100.00
56330;BME280;42236;48.058;10.632;2024-02-04T01:40:52;95716.38;;;4.17;100.00
56330;BME280;42236;48.058;10.632;2024-02-04T01:43:39;95706.75;;;4.21;100.00
56330;BME280;42236;48.058;10.632;2024-02-04T01:46:25;95696.06;;;4.21;100.00
56330;BME280;42236;48.058;10.632;2024-02-04T01:49:10;95692.31;;;4.22;100.00
56330;BME280;42236;48.058;10.632;2024-02-04T01:51:56;95676.03;;;4.24;100.00
56330;BME280;42236;48.058;10.632;2024-02-04T01:54:42;95662.13;;;4.22;100.00
56330;BME280;42236;48.058;10.632;2024-02-04T01:57:28;95664.25;;;4.25;100.00
56330;BME280;42236;48.058;10.632;2024-02-04T02:00:14;95670.91;;;4.27;100.00
56330;BME280;42236;48.058;10.632;2024-02-04T02:03:01;95673.84;;;4.31;100.00
56330;BME280;42236;48.058;10.632;2024-02-04T02:05:47;95668.25;;;4.33;100.00
56330;BME280;42236;48.058;10.632;2024-02-04T02:08:33;95667.44;;;4.32;100.00
56330;BME280;42236;48.058;10.632;2024-02-04T02:11:21;95680.78;;;4.32;100.00
56330;BME280;42236;48.058;10.632;2024-02-04T02:14:15;95682.41;;;4.33;100.00
56330;BME280;42236;48.058;10.632;2024-02-04T02:17:07;95679.44;;;4.35;100.00
56330;BME280;42236;48.058;10.632;2024-02-04T02:20:09;95674.66;;;4.32;100.00
56330;BME280;42236;48.058;10.632;2024-02-04T02:23:04;95673.84;;;4.31;100.00
56330;BME280;42236;48.058;10.632;2024-02-04T02:25:52;95664.53;;;4.28;100.00
56330;BME280;42236;48.058;10.632;2024-02-04T02:28:40;95652.47;;;4.31;100.00
56330;BME280;42236;48.058;10.632;2024-02-04T02:31:26;95645.78;;;4.34;100.00
56330;BME280;42236;48.058;10.632;2024-02-04T02:34:11;95641.25;;;4.34;100.00
56330;BME280;42236;48.058;10.632;2024-02-04T02:37:20;95640.69;;;4.37;100.00
56330;BME280;42236;48.058;10.632;2024-02-04T02:43:35;95665.56;;;4.33;100.00
56330;BME280;42236;48.058;10.632;2024-02-04T02:46:23;95666.09;;;4.30;100.00
56330;BME280;42236;48.058;10.632;2024-02-04T02:49:09;95667.75;;;4.25;100.00
56330;BME280;42236;48.058;10.632;2024-02-04T02:51:55;95668.53;;;4.26;100.00
56330;BME280;42236;48.058;10.632;2024-02-04T02:54:41;95668.81;;;4.24;100.00
56330;BME280;42236;48.058;10.632;2024-02-04T02:57:26;95662.09;;;4.27;100.00
56330;BME280;42236;48.058;10.632;2024-02-04T03:00:13;95661.59;;;4.30;100.00
56330;BME280;42236;48.058;10.632;2024-02-04T03:02:58;95657.56;;;4.33;100.00
56330;BME280;42236;48.058;10.632;2024-02-04T03:05:44;95668.22;;;4.38;100.00
56330;BME280;42236;48.058;10.632;2024-02-04T03:08:30;95679.94;;;4.42;100.00
56330;BME280;42236;48.058;10.632;2024-02-04T03:11:16;95678.59;;;4.44;100.00
56330;BME280;42236;48.058;10.632;2024-02-04T03:14:02;95678.84;;;4.48;100.00
56330;BME280;42236;48.058;10.632;2024-02-04T03:16:47;95678.81;;;4.53;100.00
56330;BME280;42236;48.058;10.632;2024-02-04T03:19:33;95687.59;;;4.59;100.00
56330;BME280;42236;48.058;10.632;2024-02-04T03:22:18;95685.69;;;4.64;100.00
56330;BME280;42236;48.058;10.632;2024-02-04T03:25:06;95693.69;;;4.69;100.00
56330;BME280;42236;48.058;10.632;2024-02-04T03:27:52;95700.63;;;4.70;100.00
56330;BME280;42236;48.058;10.632;2024-02-04T03:30:38;95699.56;;;4.72;100.00
56330;BME280;42236;48.058;10.632;2024-02-04T03:33:24;95699.03;;;4.69;100.00
56330;BME280;42236;48.058;10.632;2024-02-04T03:36:09;95697.69;;;4.72;100.00
56330;BME280;42236;48.058;10.632;2024-02-04T03:38:55;95697.94;;;4.70;100.00
56330;BME280;42236;48.058;10.632;2024-02-04T03:41:40;95698.75;;;4.71;100.00
56330;BME280;42236;48.058;10.632;2024-02-04T03:44:26;95700.38;;;4.67;100.00
56330;BME280;42236;48.058;10.632;2024-02-04T03:47:12;95695.31;;;4.65;100.00
56330;BME280;42236;48.058;10.632;2024-02-04T03:49:57;95702.78;;;4.63;100.00
56330;BME280;42236;48.058;10.632;2024-02-04T03:52:43;95702.00;;;4.63;100.00
56330;BME280;42236;48.058;10.632;2024-02-04T03:55:29;95711.91;;;4.62;100.00
56330;BME280;42236;48.058;10.632;2024-02-04T03:58:19;95704.41;;;4.64;100.00
56330;BME280;42236;48.058;10.632;2024-02-04T04:01:05;95691.56;;;4.66;100.00
56330;BME280;42236;48.058;10.632;2024-02-04T04:03:54;95686.22;;;4.66;100.00
56330;BME280;42236;48.058;10.632;2024-02-04T04:06:40;95687.25;;;4.70;100.00
56330;BME280;42236;48.058;10.632;2024-02-04T04:09:27;95683.53;;;4.72;100.00
56330;BME280;42236;48.058;10.632;2024-02-04T04:12:12;95678.41;;;4.75;100.00
56330;BME280;42236;48.058;10.632;2024-02-04T04:14:58;95679.50;;;4.74;100.00
56330;BME280;42236;48.058;10.632;2024-02-04T04:17:43;95694.19;;;4.77;100.00
56330;BME280;42236;48.058;10.632;2024-02-04T04:20:29;95682.69;;;4.76;100.00
56330;BME280;42236;48.058;10.632;2024-02-04T04:23:15;95677.34;;;4.76;100.00
56330;BME280;42236;48.058;10.632;2024-02-04T04:26:00;95675.47;;;4.77;100.00
56330;BME280;42236;48.058;10.632;2024-02-04T04:28:46;95675.72;;;4.75;100.00
56330;BME280;42236;48.058;10.632;2024-02-04T04:31:32;95687.22;;;4.76;100.00
56330;BME280;42236;48.058;10.632;2024-02-04T04:34:18;95682.97;;;4.75;100.00
56330;BME280;42236;48.058;10.632;2024-02-04T04:37:05;95690.72;;;4.76;100.00
56330;BME280;42236;48.058;10.632;2024-02-04T04:39:50;95688.03;;;4.71;100.00
56330;BME280;42236;48.058;10.632;2024-02-04T04:42:36;95676.56;;;4.70;100.00
56330;BME280;42236;48.058;10.632;2024-02-04T04:45:22;95673.34;;;4.74;100.00
56330;BME280;42236;48.058;10.632;2024-02-04T04:48:07;95668.00;;;4.74;100.00
56330;BME280;42236;48.058;10.632;2024-02-04T04:50:54;95668.00;;;4.74;100.00
56330;BME280;42236;48.058;10.632;2024-02-04T04:53:39;95665.88;;;4.70;100.00
56330;BME280;42236;48.058;10.632;2024-02-04T04:56:25;95664.28;;;4.69;100.00
56330;BME280;42236;48.058;10.632;2024-02-04T04:59:11;95669.63;;;4.69;100.00
56330;BME280;42236;48.058;10.632;2024-02-04T05:01:56;95676.03;;;4.68;100.00
56330;BME280;42236;48.058;10.632;2024-02-04T05:04:43;95672.03;;;4.66;100.00
56330;BME280;42236;48.058;10.632;2024-02-04T05:07:33;95670.72;;;4.63;100.00
56330;BME280;42236;48.058;10.632;2024-02-04T05:10:18;95674.53;;;4.57;100.00
56330;BME280;42236;48.058;10.632;2024-02-04T05:13:04;95681.47;;;4.53;100.00
56330;BME280;42236;48.058;10.632;2024-02-04T05:15:50;95682.03;;;4.50;100.00
56330;BME280;42236;48.058;10.632;2024-02-04T05:18:35;95681.25;;;4.49;100.00
56330;BME280;42236;48.058;10.632;2024-02-04T05:21:21;95665.47;;;4.48;100.00
56330;BME280;42236;48.058;10.632;2024-02-04T05:24:07;95659.06;;;4.49;100.00
56330;BME280;42236;48.058;10.632;2024-02-04T05:26:52;95668.16;;;4.48;100.00
56330;BME280;42236;48.058;10.632;2024-02-04T05:29:38;95658.03;;;4.45;100.00
56330;BME280;42236;48.058;10.632;2024-02-04T05:32:24;95670.06;;;4.42;100.00
56330;BME280;42236;48.058;10.632;2024-02-04T05:35:09;95674.34;;;4.38;100.00
56330;BME280;42236;48.058;10.632;2024-02-04T05:37:55;95666.91;;;4.35;100.00
56330;BME280;42236;48.058;10.632;2024-02-04T05:40:41;95662.91;;;4.33;100.00
56330;BME280;42236;48.058;10.632;2024-02-04T05:43:26;95662.38;;;4.31;100.00
56330;BME280;42236;48.058;10.632;2024-02-04T05:46:13;95657.56;;;4.33;100.00
56330;BME280;42236;48.058;10.632;2024-02-04T05:48:59;95655.94;;;4.32;100.00
56330;BME280;42236;48.058;10.632;2024-02-04T05:51:44;95657.28;;;4.29;100.00
56330;BME280;42236;48.058;10.632;2024-02-04T05:54:30;95644.72;;;4.30;100.00
56330;BME280;42236;48.058;10.632;2024-02-04T05:57:16;95652.22;;;4.27;100.00
56330;BME280;42236;48.058;10.632;2024-02-04T06:00:02;95640.22;;;4.30;100.00
56330;BME280;42236;48.058;10.632;2024-02-04T06:02:48;95637.25;;;4.32;100.00
56330;BME280;42236;48.058;10.632;2024-02-04T06:05:34;95640.75;;;4.27;100.00
56330;BME280;42236;48.058;10.632;2024-02-04T06:08:19;95649.28;;;4.29;100.00
56330;BME280;42236;48.058;10.632;2024-02-04T06:11:05;95666.09;;;4.30;100.00
56330;BME280;42236;48.058;10.632;2024-02-04T06:13:54;95661.59;;;4.30;100.00
56330;BME280;42236;48.058;10.632;2024-02-04T06:16:40;95668.78;;;4.30;100.00
56330;BME280;42236;48.058;10.632;2024-02-04T06:19:25;95664.81;;;4.22;100.00
56330;BME280;42236;48.058;10.632;2024-02-04T06:22:11;95668.28;;;4.22;100.00
56330;BME280;42236;48.058;10.632;2024-02-04T06:24:57;95674.69;;;4.21;100.00
56330;BME280;42236;48.058;10.632;2024-02-04T06:27:42;95674.44;;;4.23;100.00
56330;BME280;42236;48.058;10.632;2024-02-04T06:30:28;95686.16;;;4.27;100.00
56330;BME280;42236;48.058;10.632;2024-02-04T06:33:14;95701.66;;;4.30;100.00
56330;BME280;42236;48.058;10.632;2024-02-04T06:35:59;95711.00;;;4.33;100.00
56330;BME280;42236;48.058;10.632;2024-02-04T06:38:45;95713.09;;;4.36;100.00
56330;BME280;42236;48.058;10.632;2024-02-04T06:41:31;95728.56;;;4.39;100.00
56330;BME280;42236;48.058;10.632;2024-02-04T06:44:20;95730.69;;;4.42;100.00
56330;BME280;42236;48.058;10.632;2024-02-04T06:47:05;95732.84;;;4.45;100.00
56330;BME280;42236;48.058;10.632;2024-02-04T06:49:51;95737.88;;;4.46;100.00
56330;BME280;42236;48.058;10.632;2024-02-04T06:52:36;95749.41;;;4.47;100.00
56330;BME280;42236;48.058;10.632;2024-02-04T06:55:22;95747.25;;;4.44;100.00
56330;BME280;42236;48.058;10.632;2024-02-04T06:58:08;95749.38;;;4.42;100.00
56330;BME280;42236;48.058;10.632;2024-02-04T07:00:53;95746.22;;;4.40;100.00
56330;BME280;42236;48.058;10.632;2024-02-04T07:03:39;95737.16;;;4.36;100.00
56330;BME280;42236;48.058;10.632;2024-02-04T07:06:25;95738.19;;;4.35;100.00
56330;BME280;42236;48.058;10.632;2024-02-04T07:09:10;95724.84;;;4.35;100.00
56330;BME280;42236;48.058;10.632;2024-02-04T07:11:56;95719.22;;;4.36;100.00
56330;BME280;42236;48.058;10.632;2024-02-04T07:14:42;95723.22;;;4.39;100.00
56330;BME280;42236;48.058;10.632;2024-02-04T07:17:27;95716.53;;;4.41;100.00
56330;BME280;42236;48.058;10.632;2024-02-04T07:20:13;95720.00;;;4.47;100.00
56330;BME280;42236;48.058;10.632;2024-02-04T07:22:59;95725.59;;;4.51;100.00
56330;BME280;42236;48.058;10.632;2024-02-04T07:25:44;95730.16;;;4.45;100.00
56330;BME280;42236;48.058;10.632;2024-02-04T07:28:31;95723.72;;;4.46;100.00
56330;BME280;42236;48.058;10.632;2024-02-04T07:31:17;95723.22;;;4.39;100.00
56330;BME280;42236;48.058;10.632;2024-02-04T07:34:04;95729.66;;;4.38;100.00
56330;BME280;42236;48.058;10.632;2024-02-04T07:36:50;95731.50;;;4.42;100.00
56330;BME280;42236;48.058;10.632;2024-02-04T07:39:38;95738.97;;;4.45;100.00
56330;BME280;42236;48.058;10.632;2024-02-04T07:42:23;95732.25;;;4.53;100.00
56330;BME280;42236;48.058;10.632;2024-02-04T07:45:09;95738.69;;;4.52;100.00
56330;BME280;42236;48.058;10.632;2024-02-04T07:47:55;95730.94;;;4.51;100.00
56330;BME280;42236;48.058;10.632;2024-02-04T07:50:40;95724.50;;;4.52;100.00
56330;BME280;42236;48.058;10.632;2024-02-04T07:53:26;95724.22;;;4.58;100.00
56330;BME280;42236;48.058;10.632;2024-02-04T07:56:12;95716.69;;;4.65;100.00
56330;BME280;42236;48.058;10.632;2024-02-04T07:58:57;95718.81;;;4.68;100.00
56330;BME280;42236;48.058;10.632;2024-02-04T08:01:43;95703.78;;;4.78;100.00
56330;BME280;42236;48.058;10.632;2024-02-04T08:04:29;95702.19;;;4.77;100.00
56330;BME280;42236;48.058;10.632;2024-02-04T08:07:14;95704.84;;;4.82;100.00
56330;BME280;42236;48.058;10.632;2024-02-04T08:10:03;95703.22;;;4.81;100.00
56330;BME280;42236;48.058;10.632;2024-02-04T08:12:48;95702.72;;;4.79;100.00
56330;BME280;42236;48.058;10.632;2024-02-04T08:15:37;95703.22;;;4.81;100.00
56330;BME280;42236;48.058;10.632;2024-02-04T08:18:22;95703.47;;;4.84;100.00
56330;BME280;42236;48.058;10.632;2024-02-04T08:21:08;95713.53;;;4.98;100.00
56330;BME280;42236;48.058;10.632;2024-02-04T08:23:54;95713.19;;;5.09;100.00
56330;BME280;42236;48.058;10.632;2024-02-04T08:26:39;95711.00;;;5.17;100.00
56330;BME280;42236;48.058;10.632;2024-02-04T08:29:25;95705.59;;;5.27;100.00
56330;BME280;42236;48.058;10.632;2024-02-04T08:32:11;95718.38;;;5.35;100.00
56330;BME280;42236;48.058;10.632;2024-02-04T08:34:58;95711.34;;;5.44;100.00
56330;BME280;42236;48.058;10.632;2024-02-04T08:37:44;95703.25;;;5.49;100.00
56330;BME280;42236;48.058;10.632;2024-02-04T08:40:29;95702.94;;;5.56;100.00
56330;BME280;42236;48.058;10.632;2024-02-04T08:43:15;95697.00;;;5.59;100.00
56330;BME280;42236;48.058;10.632;2024-02-04T08:46:01;95692.19;;;5.61;100.00
56330;BME280;42236;48.058;10.632;2024-02-04T08:48:46;95698.91;;;5.59;100.00
56330;BME280;42236;48.058;10.632;2024-02-04T08:51:32;95701.56;;;5.59;100.00
56330;BME280;42236;48.058;10.632;2024-02-04T08:54:17;95710.13;;;5.61;100.00
56330;BME280;42236;48.058;10.632;2024-02-04T08:57:04;95705.88;;;5.54;100.00
56330;BME280;42236;48.058;10.632;2024-02-04T08:59:50;95694.13;;;5.50;100.00
56330;BME280;42236;48.058;10.632;2024-02-04T09:02:35;95705.09;;;5.54;100.00
56330;BME280;42236;48.058;10.632;2024-02-04T09:05:21;95693.53;;;5.59;100.00
56330;BME280;42236;48.058;10.632;2024-02-04T09:08:07;95695.66;;;5.62;100.00
56330;BME280;42236;48.058;10.632;2024-02-04T09:10:53;95702.50;;;5.73;100.00
56330;BME280;42236;48.058;10.632;2024-02-04T09:13:38;95693.84;;;5.81;100.00
56330;BME280;42236;48.058;10.632;2024-02-04T09:16:24;95698.09;;;5.87;100.00
56330;BME280;42236;48.058;10.632;2024-02-04T09:19:09;95703.13;;;5.94;100.00
56330;BME280;42236;48.058;10.632;2024-02-04T09:21:55;95695.25;;;6.03;100.00
56330;BME280;42236;48.058;10.632;2024-02-04T09:24:41;95699.38;;;6.19;100.00
56330;BME280;42236;48.058;10.632;2024-02-04T09:27:26;95691.72;;;6.31;100.00
56330;BME280;42236;48.058;10.632;2024-02-04T09:30:12;95687.81;;;6.43;100.00
56330;BME280;42236;48.058;10.632;2024-02-04T09:32:58;95695.84;;;6.43;100.00
56330;BME280;42236;48.058;10.632;2024-02-04T09:35:43;95697.19;;;6.45;100.00
56330;BME280;42236;48.058;10.632;2024-02-04T09:38:30;95701.16;;;6.48;100.00
56330;BME280;42236;48.058;10.632;2024-02-04T09:41:15;95692.69;;;6.40;99.63
56330;BME280;42236;48.058;10.632;2024-02-04T09:44:02;95696.94;;;6.41;100.00
56330;BME280;42236;48.058;10.632;2024-02-04T09:46:48;95690.44;;;6.48;100.00
56330;BME280;42236;48.058;10.632;2024-02-04T09:49:34;95681.31;;;6.49;99.73
56330;BME280;42236;48.058;10.632;2024-02-04T09:52:21;95692.03;;;6.49;99.93
56330;BME280;42236;48.058;10.632;2024-02-04T09:55:10;95676.97;;;6.53;99.83
56330;BME280;42236;48.058;10.632;2024-02-04T09:57:58;95678.63;;;6.49;99.53
56330;BME280;42236;48.058;10.632;2024-02-04T10:00:47;95680.28;;;6.45;99.44
56330;BME280;42236;48.058;10.632;2024-02-04T10:03:32;95679.75;;;6.43;99.54
56330;BME280;42236;48.058;10.632;2024-02-04T10:06:18;95681.78;;;6.32;99.17
56330;BME280;42236;48.058;10.632;2024-02-04T10:09:03;95676.44;;;6.32;99.98
56330;BME280;42236;48.058;10.632;2024-02-04T10:11:49;95684.75;;;6.30;99.64
56330;BME280;42236;48.058;10.632;2024-02-04T10:14:35;95673.47;;;6.33;99.54
56330;BME280;42236;48.058;10.632;2024-02-04T10:17:21;95678.25;;;6.36;99.31
56330;BME280;42236;48.058;10.632;2024-02-04T10:20:10;95690.56;;;6.37;99.09
56330;BME280;42236;48.058;10.632;2024-02-04T10:22:55;95689.75;;;6.37;99.38
56330;BME280;42236;48.058;10.632;2024-02-04T10:25:41;95691.41;;;6.33;100.00
56330;BME280;42236;48.058;10.632;2024-02-04T10:28:26;95706.09;;;6.40;99.96
56330;BME280;42236;48.058;10.632;2024-02-04T10:31:13;95705.16;;;6.50;99.53
56330;BME280;42236;48.058;10.632;2024-02-04T10:33:59;95686.22;;;6.41;98.63
56330;BME280;42236;48.058;10.632;2024-02-04T10:36:45;95688.84;;;6.47;99.08
56330;BME280;42236;48.058;10.632;2024-02-04T10:39:31;95685.47;;;6.60;98.54
56330;BME280;42236;48.058;10.632;2024-02-04T10:42:17;95673.78;;;6.70;97.89
56330;BME280;42236;48.058;10.632;2024-02-04T10:45:07;95669.59;;;6.82;98.32
56330;BME280;42236;48.058;10.632;2024-02-04T10:47:56;95670.00;;;6.90;97.26
56330;BME280;42236;48.058;10.632;2024-02-04T10:50:44;95653.06;;;6.94;96.61
56330;BME280;42236;48.058;10.632;2024-02-04T10:53:31;95663.09;;;7.02;96.73
56330;BME280;42236;48.058;10.632;2024-02-04T10:56:30;95664.50;;;7.00;94.81
56330;BME280;42236;48.058;10.632;2024-02-04T10:59:18;95667.34;;;6.90;95.79
56330;BME280;42236;48.058;10.632;2024-02-04T11:02:05;95683.16;;;6.91;95.34
56330;BME280;42236;48.058;10.632;2024-02-04T11:04:53;95688.50;;;6.91;96.23
56330;BME280;42236;48.058;10.632;2024-02-04T11:07:39;95669.78;;;7.05;96.12
56330;BME280;42236;48.058;10.632;2024-02-04T11:10:27;95659.38;;;7.17;95.07
56330;BME280;42236;48.058;10.632;2024-02-04T11:13:14;95664.81;;;7.31;95.41
56330;BME280;42236;48.058;10.632;2024-02-04T11:16:06;95647.22;;;7.39;94.60
56330;BME280;42236;48.058;10.632;2024-02-04T11:22:12;95634.03;;;7.56;94.35
56330;BME280;42236;48.058;10.632;2024-02-04T11:25:20;95635.84;;;7.75;92.21
56330;BME280;42236;48.058;10.632;2024-02-04T11:28:11;95619.94;;;7.92;93.37
56330;BME280;42236;48.058;10.632;2024-02-04T11:30:57;95621.50;;;8.07;92.70
56330;BME280;42236;48.058;10.632;2024-02-04T11:33:44;95622.41;;;8.16;92.16
56330;BME280;42236;48.058;10.632;2024-02-04T11:36:37;95617.13;;;8.25;91.61
56330;BME280;42236;48.058;10.632;2024-02-04T11:39:24;95616.91;;;8.35;91.33
56330;BME280;42236;48.058;10.632;2024-02-04T11:42:14;95610.13;;;8.51;90.95
56330;BME280;42236;48.058;10.632;2024-02-04T11:45:11;95616.16;;;8.71;88.55
56330;BME280;42236;48.058;10.632;2024-02-04T11:48:00;95601.84;;;8.84;88.43
56330;BME280;42236;48.058;10.632;2024-02-04T11:50:54;95602.72;;;8.93;86.81
56330;BME280;42236;48.058;10.632;2024-02-04T11:53:41;95595.91;;;8.96;89.01
56330;BME280;42236;48.058;10.632;2024-02-04T11:56:27;95584.56;;;8.99;88.45
56330;BME280;42236;48.058;10.632;2024-02-04T11:59:14;95585.47;;;8.94;86.01
56330;BME280;42236;48.058;10.632;2024-02-04T12:02:05;95582.22;;;8.84;85.27
56330;BME280;42236;48.058;10.632;2024-02-04T12:04:51;95582.28;;;8.92;83.98
56330;BME280;42236;48.058;10.632;2024-02-04T12:07:39;95588.41;;;9.07;85.26
56330;BME280;42236;48.058;10.632;2024-02-04T12:10:26;95583.06;;;9.15;84.74
56330;BME280;42236;48.058;10.632;2024-02-04T12:13:12;95581.66;;;9.18;82.98
56330;BME280;42236;48.058;10.632;2024-02-04T12:15:57;95576.94;;;9.24;83.83
56330;BME280;42236;48.058;10.632;2024-02-04T12:18:50;95564.50;;;9.36;82.44
56330;BME280;42236;48.058;10.632;2024-02-04T12:21:37;95565.63;;;9.44;82.63
56330;BME280;42236;48.058;10.632;2024-02-04T12:24:22;95552.03;;;9.49;82.47
56330;BME280;42236;48.058;10.632;2024-02-04T12:27:08;95550.16;;;9.50;82.81
56330;BME280;42236;48.058;10.632;2024-02-04T12:29:54;95550.75;;;9.47;83.02
56330;BME280;42236;48.058;10.632;2024-02-04T12:32:40;95527.34;;;9.47;81.09
56330;BME280;42236;48.058;10.632;2024-02-04T12:35:26;95524.31;;;9.49;82.01
56330;BME280;42236;48.058;10.632;2024-02-04T12:38:16;95521.31;;;9.50;82.50
56330;BME280;42236;48.058;10.632;2024-02-04T12:41:03;95512.91;;;9.52;82.69
56330;BME280;42236;48.058;10.632;2024-02-04T12:43:56;95513.25;;;9.59;80.80
56330;BME280;42236;48.058;10.632;2024-02-04T12:46:42;95494.88;;;9.61;81.67
56330;BME280;42236;48.058;10.632;2024-02-04T12:49:27;95507.25;;;9.62;82.65
56330;BME280;42236;48.058;10.632;2024-02-04T12:52:13;95494.28;;;9.64;82.36
56330;BME280;42236;48.058;10.632;2024-02-04T12:54:59;95491.84;;;9.54;81.15
56330;BME280;42236;48.058;10.632;2024-02-04T12:57:44;95489.78;;;9.51;82.00
56330;BME280;42236;48.058;10.632;2024-02-04T13:00:31;95479.78;;;9.51;81.89
56330;BME280;42236;48.058;10.632;2024-02-04T13:03:17;95482.19;;;9.53;81.61
56330;BME280;42236;48.058;10.632;2024-02-04T13:06:03;95494.53;;;9.54;81.74
56330;BME280;42236;48.058;10.632;2024-02-04T13:08:54;95487.91;;;9.60;80.91
56330;BME280;42236;48.058;10.632;2024-02-04T13:11:43;95477.78;;;9.57;80.77
56330;BME280;42236;48.058;10.632;2024-02-04T13:14:29;95475.88;;;9.66;80.17
56330;BME280;42236;48.058;10.632;2024-02-04T13:17:14;95485.25;;;9.77;79.34
56330;BME280;42236;48.058;10.632;2024-02-04T13:20:00;95500.50;;;9.91;78.81
56330;BME280;42236;48.058;10.632;2024-02-04T13:22:46;95494.47;;;10.02;78.03
56330;BME280;42236;48.058;10.632;2024-02-04T13:25:32;95485.94;;;10.09;77.31
56330;BME280;42236;48.058;10.632;2024-02-04T13:28:17;95489.25;;;10.06;78.13
56330;BME280;42236;48.058;10.632;2024-02-04T13:31:04;95489.59;;;10.13;78.48
56330;BME280;42236;48.058;10.632;2024-02-04T13:33:50;95496.25;;;10.16;76.88
56330;BME280;42236;48.058;10.632;2024-02-04T13:36:35;95495.63;;;10.10;77.53
56330;BME280;42236;48.058;10.632;2024-02-04T13:39:21;95502.59;;;10.11;77.14
56330;BME280;42236;48.058;10.632;2024-02-04T13:42:07;95501.94;;;10.14;76.56
56330;BME280;42236;48.058;10.632;2024-02-04T13:44:52;95497.22;;;10.20;76.75
56330;BME280;42236;48.058;10.632;2024-02-04T13:47:38;95491.34;;;10.18;76.34
56330;BME280;42236;48.058;10.632;2024-02-04T13:50:24;95491.81;;;10.20;76.00
56330;BME280;42236;48.058;10.632;2024-02-04T13:53:10;95472.59;;;10.21;76.38
56330;BME280;42236;48.058;10.632;2024-02-04T13:55:56;95465.00;;;10.23;76.69
56330;BME280;42236;48.058;10.632;2024-02-04T13:58:42;95464.88;;;10.29;76.40
56330;BME280;42236;48.058;10.632;2024-02-04T14:01:28;95479.28;;;10.24;74.84
56330;BME280;42236;48.058;10.632;2024-02-04T14:04:13;95483.88;;;10.23;74.92
56330;BME280;42236;48.058;10.632;2024-02-04T14:06:59;95489.91;;;10.20;75.33
56330;BME280;42236;48.058;10.632;2024-02-04T14:09:45;95504.34;;;10.16;74.57
56330;BME280;42236;48.058;10.632;2024-02-04T14:12:31;95504.16;;;10.12;75.39
56330;BME280;42236;48.058;10.632;2024-02-04T14:15:17;95499.41;;;10.09;75.47
56330;BME280;42236;48.058;10.632;2024-02-04T14:18:03;95492.13;;;10.01;75.03
56330;BME280;42236;48.058;10.632;2024-02-04T14:20:48;95479.88;;;9.95;75.17
56330;BME280;42236;48.058;10.632;2024-02-04T14:23:34;95466.88;;;9.88;75.20
56330;BME280;42236;48.058;10.632;2024-02-04T14:26:20;95462.13;;;9.85;74.81
56330;BME280;42236;48.058;10.632;2024-02-04T14:29:06;95463.41;;;9.79;74.19
56330;BME280;42236;48.058;10.632;2024-02-04T14:31:52;95483.19;;;9.74;75.10
56330;BME280;42236;48.058;10.632;2024-02-04T14:34:38;95477.81;;;9.74;74.30
56330;BME280;42236;48.058;10.632;2024-02-04T14:37:24;95472.22;;;9.71;74.37
56330;BME280;42236;48.058;10.632;2024-02-04T14:40:10;95473.34;;;9.70;74.57